createdAt,value
2023-02-04T00:02:00.415Z,-0.40
2023-02-04T00:04:31.045Z,-0.40
2023-02-04T00:07:00.285Z,-0.40
2023-02-04T00:09:29.539Z,-0.50
2023-02-04T00:11:58.780Z,-0.40
2023-02-04T00:14:27.998Z,-0.40
2023-02-04T00:16:57.240Z,-0.50
2023-02-04T00:19:26.424Z,-0.50
2023-02-04T00:21:57.111Z,-0.50
2023-02-04T00:24:26.285Z,-0.50
2023-02-04T00:26:55.434Z,-0.50
2023-02-04T00:29:24.797Z,-0.50
2023-02-04T00:31:55.131Z,-0.50
2023-02-04T00:34:24.628Z,-0.50
2023-02-04T00:36:53.904Z,-0.50
2023-02-04T00:39:24.669Z,-0.50
2023-02-04T00:41:53.950Z,-0.50
2023-02-04T00:44:23.190Z,-0.60
2023-02-04T00:49:22.052Z,-0.60
2023-02-04T00:51:52.496Z,-0.60
2023-02-04T00:54:21.740Z,-0.60
2023-02-04T00:56:52.461Z,-0.50
2023-02-04T00:59:21.731Z,-0.50
2023-02-04T01:01:51.859Z,-0.60
2023-02-04T01:04:21.502Z,-0.60
2023-02-04T01:06:50.692Z,-0.60
2023-02-04T01:09:20.089Z,-0.60
2023-02-04T01:11:49.357Z,-0.60
2023-02-04T01:14:20.048Z,-0.50
2023-02-04T01:16:49.281Z,-0.60
2023-02-04T01:19:18.653Z,-0.60
2023-02-04T01:21:47.896Z,-0.50
2023-02-04T01:24:17.186Z,-0.50
2023-02-04T01:27:04.919Z,-0.50
2023-02-04T01:29:36.005Z,-0.50
2023-02-04T01:32:05.357Z,-0.50
2023-02-04T01:34:34.664Z,-0.50
2023-02-04T01:37:04.008Z,-0.50
2023-02-04T01:39:34.322Z,-0.50
2023-02-04T01:42:03.663Z,-0.50
2023-02-04T01:44:33.215Z,-0.50
2023-02-04T01:47:03.982Z,-0.40
2023-02-04T01:49:33.549Z,-0.40
2023-02-04T01:52:03.886Z,-0.40
2023-02-04T01:54:33.806Z,-0.40
2023-02-04T01:57:03.538Z,-0.40
2023-02-04T01:59:32.946Z,-0.40
2023-02-04T02:02:03.963Z,-0.40
2023-02-04T02:04:35.099Z,-0.30
2023-02-04T02:07:06.896Z,-0.40
2023-02-04T02:09:37.948Z,-0.40
2023-02-04T02:12:08.482Z,-0.30
2023-02-04T02:14:37.713Z,-0.30
2023-02-04T02:17:08.351Z,-0.30
2023-02-04T02:19:39.814Z,-0.40
2023-02-04T02:22:16.663Z,-0.30
2023-02-04T02:24:47.290Z,-0.30
2023-02-04T02:27:16.550Z,-0.30
2023-02-04T02:29:45.999Z,-0.30
2023-02-04T02:32:16.833Z,-0.30
2023-02-04T02:34:47.900Z,-0.30
2023-02-04T02:37:17.122Z,-0.30
2023-02-04T02:39:48.364Z,-0.30
2023-02-04T02:42:19.437Z,-0.20
2023-02-04T02:44:51.051Z,-0.20
2023-02-04T02:47:23.559Z,-0.20
2023-02-04T02:49:54.575Z,-0.20
2023-02-04T02:52:24.360Z,-0.20
2023-02-04T02:54:55.276Z,-0.20
2023-02-04T02:57:25.483Z,-0.20
2023-02-04T02:59:54.725Z,-0.20
2023-02-04T03:02:25.923Z,-0.20
2023-02-04T03:04:57.075Z,-0.20
2023-02-04T03:07:30.445Z,-0.20
2023-02-04T03:10:04.627Z,-0.20
2023-02-04T03:12:33.952Z,-0.10
2023-02-04T03:15:04.543Z,-0.10
2023-02-04T03:17:34.509Z,-0.10
2023-02-04T03:20:04.220Z,-0.10
2023-02-04T03:22:33.795Z,-0.10
2023-02-04T03:25:04.796Z,-0.20
2023-02-04T03:27:34.601Z,-0.10
2023-02-04T03:30:04.012Z,-0.10
2023-02-04T03:32:33.209Z,-0.10
2023-02-04T03:35:02.444Z,-0.10
2023-02-04T03:37:31.824Z,-0.10
2023-02-04T03:40:00.993Z,-0.20
2023-02-04T03:42:31.664Z,-0.10
2023-02-04T03:45:00.843Z,-0.20
2023-02-04T03:47:30.074Z,-0.20
2023-02-04T03:49:59.272Z,-0.20
2023-02-04T03:52:28.545Z,-0.20
2023-02-04T03:54:57.724Z,-0.20
2023-02-04T03:57:26.992Z,-0.20
2023-02-04T03:59:57.613Z,-0.20
2023-02-04T04:02:26.917Z,-0.20
2023-02-04T04:04:56.192Z,-0.20
2023-02-04T04:07:25.431Z,-0.20
2023-02-04T04:09:54.646Z,-0.20
2023-02-04T04:12:23.872Z,-0.20
2023-02-04T04:14:53.059Z,-0.30
2023-02-04T04:17:23.846Z,-0.30
2023-02-04T04:19:53.062Z,-0.30
2023-02-04T04:22:22.371Z,-0.40
2023-02-04T04:24:51.561Z,-0.40
2023-02-04T04:27:20.816Z,-0.40
2023-02-04T04:29:50.036Z,-0.40
2023-02-04T04:32:19.267Z,-0.40
2023-02-04T04:34:50.063Z,-0.40
2023-02-04T04:37:19.301Z,-0.40
2023-02-04T04:39:48.505Z,-0.40
2023-02-04T04:42:17.645Z,-0.50
2023-02-04T04:44:46.814Z,-0.40
2023-02-04T04:47:15.992Z,-0.40
2023-02-04T04:49:45.225Z,-0.40
2023-02-04T04:52:15.867Z,-0.40
2023-02-04T04:54:45.096Z,-0.30
2023-02-04T04:57:14.286Z,-0.30
2023-02-04T04:59:43.526Z,-0.20
2023-02-04T05:02:12.701Z,-0.30
2023-02-04T05:04:41.984Z,-0.20
2023-02-04T05:07:11.237Z,-0.20
2023-02-04T05:09:41.930Z,-0.20
2023-02-04T05:12:11.125Z,-0.20
2023-02-04T05:14:40.683Z,-0.10
2023-02-04T05:17:09.945Z,-0.20
2023-02-04T05:19:39.070Z,-0.20
2023-02-04T05:22:08.266Z,-0.10
2023-02-04T05:24:37.414Z,-0.10
2023-02-04T05:27:08.193Z,-0.10
2023-02-04T05:29:37.373Z,-0.10
2023-02-04T05:32:06.926Z,-0.10
2023-02-04T05:34:36.164Z,0.00
2023-02-04T05:37:05.422Z,0.00
2023-02-04T05:39:34.586Z,0.10
2023-02-04T05:42:03.962Z,0.10
2023-02-04T05:44:34.762Z,0.00
2023-02-04T05:47:04.032Z,0.00
2023-02-04T05:49:33.613Z,0.00
2023-02-04T05:52:02.966Z,0.10
2023-02-04T05:54:32.217Z,0.10
2023-02-04T05:57:01.405Z,0.10
2023-02-04T05:59:30.615Z,0.10
2023-02-04T06:02:01.337Z,0.10
2023-02-04T06:04:30.568Z,0.10
2023-02-04T06:06:59.792Z,0.10
2023-02-04T06:09:29.003Z,0.10
2023-02-04T06:11:58.391Z,0.10
2023-02-04T06:14:27.579Z,0.10
2023-02-04T06:16:56.891Z,0.10
2023-02-04T06:19:27.650Z,0.10
2023-02-04T06:21:56.878Z,0.10
2023-02-04T06:24:26.179Z,0.10
2023-02-04T06:26:55.390Z,0.10
2023-02-04T06:29:24.804Z,0.10
2023-02-04T06:31:54.153Z,0.00
2023-02-04T06:34:23.710Z,0.00
2023-02-04T06:36:54.826Z,-0.10
2023-02-04T06:39:24.094Z,0.00
2023-02-04T06:41:53.370Z,-0.10
2023-02-04T06:44:22.888Z,-0.10
2023-02-04T06:46:52.171Z,-0.20
2023-02-04T06:49:21.636Z,-0.20
2023-02-04T06:51:50.969Z,-0.30
2023-02-04T06:54:21.670Z,-0.30
2023-02-04T06:56:51.076Z,-0.40
2023-02-04T06:59:20.344Z,-0.40
2023-02-04T07:01:49.587Z,-0.40
2023-02-04T07:04:18.812Z,-0.50
2023-02-04T07:06:48.040Z,-0.40
2023-02-04T07:09:17.196Z,-0.40
2023-02-04T07:11:48.167Z,-0.40
2023-02-04T07:14:17.326Z,-0.40
2023-02-04T07:16:46.605Z,-0.40
2023-02-04T07:19:15.784Z,-0.30
2023-02-04T07:21:45.008Z,-0.30
2023-02-04T07:24:14.182Z,-0.20
2023-02-04T07:26:43.432Z,0.00
2023-02-04T07:29:17.601Z,0.10
2023-02-04T07:31:53.409Z,0.30
2023-02-04T07:34:22.862Z,0.50
2023-02-04T07:36:52.324Z,0.80
2023-02-04T07:39:21.588Z,0.90
2023-02-04T07:41:51.022Z,1.10
2023-02-04T07:44:27.092Z,1.30
2023-02-04T07:46:57.130Z,1.60
2023-02-04T07:49:26.991Z,1.90
2023-02-04T07:51:58.127Z,2.40
2023-02-04T07:54:27.570Z,2.50
2023-02-04T07:56:56.809Z,2.50
2023-02-04T07:59:27.546Z,2.70
2023-02-04T08:01:57.010Z,3.10
2023-02-04T08:04:26.348Z,3.30
2023-02-04T08:06:55.718Z,3.00
2023-02-04T08:09:27.383Z,2.70
2023-02-04T08:11:56.661Z,2.80
2023-02-04T08:14:27.835Z,2.80
2023-02-04T08:16:57.211Z,3.00
2023-02-04T08:19:26.427Z,3.10
2023-02-04T08:21:55.670Z,3.20
2023-02-04T08:24:24.892Z,3.30
2023-02-04T08:26:54.165Z,3.70
2023-02-04T08:29:23.482Z,3.60
2023-02-04T08:31:54.172Z,3.80
2023-02-04T08:34:23.722Z,4.00
2023-02-04T08:36:52.941Z,3.70
2023-02-04T08:39:22.184Z,3.40
2023-02-04T08:41:51.877Z,3.40
2023-02-04T08:44:21.273Z,3.80
2023-02-04T08:46:50.536Z,3.70
2023-02-04T08:49:21.495Z,3.60
2023-02-04T08:51:50.699Z,3.40
2023-02-04T08:54:20.028Z,3.30
2023-02-04T08:56:49.306Z,3.30
2023-02-04T08:59:18.632Z,3.50
2023-02-04T09:01:51.132Z,3.60
2023-02-04T09:04:23.113Z,3.50
2023-02-04T09:06:53.234Z,3.20
2023-02-04T09:09:24.367Z,2.70
2023-02-04T09:11:54.671Z,2.00
2023-02-04T09:14:24.029Z,2.00
2023-02-04T09:16:53.319Z,2.40
2023-02-04T09:19:25.735Z,2.60
2023-02-04T09:21:55.426Z,2.70
2023-02-04T09:24:24.931Z,2.90
2023-02-04T09:26:54.242Z,3.20
2023-02-04T09:29:23.502Z,3.40
2023-02-04T09:31:52.859Z,3.10
2023-02-04T09:34:23.771Z,3.00
2023-02-04T09:36:53.093Z,3.20
2023-02-04T09:39:22.488Z,3.30
2023-02-04T09:41:54.264Z,3.10
2023-02-04T09:44:26.487Z,3.10
2023-02-04T09:46:57.767Z,3.30
2023-02-04T09:49:29.288Z,3.40
2023-02-04T09:51:58.796Z,3.30
2023-02-04T09:54:28.319Z,3.50
2023-02-04T09:56:59.649Z,3.40
2023-02-04T09:59:29.915Z,3.30
2023-02-04T10:02:02.686Z,3.30
2023-02-04T10:04:33.354Z,3.20
2023-02-04T10:07:03.858Z,3.00
2023-02-04T10:09:33.104Z,3.00
2023-02-04T10:12:02.435Z,2.90
2023-02-04T10:14:31.902Z,3.00
2023-02-04T10:17:02.893Z,3.00
2023-02-04T10:19:33.691Z,3.10
2023-02-04T10:22:04.713Z,3.30
2023-02-04T10:24:34.885Z,3.20
2023-02-04T10:27:16.429Z,3.20
2023-02-04T10:29:56.933Z,3.20
2023-02-04T10:32:31.453Z,3.20
2023-02-04T10:35:03.852Z,3.00
2023-02-04T10:37:33.531Z,3.00
2023-02-04T10:40:02.819Z,2.60
2023-02-04T10:42:33.376Z,2.40
2023-02-04T10:45:02.576Z,2.10
2023-02-04T10:47:32.450Z,2.00
2023-02-04T10:50:06.605Z,2.20
2023-02-04T10:52:37.858Z,2.30
2023-02-04T10:55:10.472Z,2.20
2023-02-04T10:57:41.838Z,2.00
2023-02-04T11:00:18.336Z,1.80
2023-02-04T11:02:59.932Z,1.80
2023-02-04T11:05:34.265Z,1.80
2023-02-04T11:08:04.692Z,1.80
2023-02-04T11:10:35.930Z,1.80
2023-02-04T11:13:07.671Z,1.60
2023-02-04T11:15:44.759Z,1.50
2023-02-04T11:18:26.604Z,1.30
2023-02-04T11:20:59.017Z,1.20
2023-02-04T11:23:37.210Z,1.30
2023-02-04T11:26:13.482Z,1.20
2023-02-04T11:28:49.687Z,1.40
2023-02-04T11:31:43.600Z,1.40
2023-02-04T11:34:27.595Z,1.50
2023-02-04T11:37:36.838Z,1.40
2023-02-04T11:40:25.018Z,1.30
2023-02-04T11:43:00.134Z,1.30
2023-02-04T11:45:32.502Z,1.30
2023-02-04T11:48:05.103Z,1.30
2023-02-04T11:50:38.677Z,1.30
2023-02-04T11:53:12.455Z,1.20
2023-02-04T11:55:47.734Z,1.20
2023-02-04T11:58:18.852Z,1.30
2023-02-04T12:00:48.695Z,1.40
2023-02-04T12:03:26.625Z,1.30
2023-02-04T12:05:56.353Z,1.40
2023-02-04T12:08:36.463Z,1.50
2023-02-04T12:11:09.640Z,1.60
2023-02-04T12:13:49.763Z,1.70
2023-02-04T12:16:19.422Z,1.60
2023-02-04T12:18:49.076Z,1.60
2023-02-04T12:21:19.584Z,1.70
2023-02-04T12:23:50.305Z,1.60
2023-02-04T12:26:19.578Z,1.70
2023-02-04T12:28:48.876Z,1.60
2023-02-04T12:31:18.194Z,1.60
2023-02-04T12:33:47.688Z,1.60
2023-02-04T12:36:16.942Z,1.60
2023-02-04T12:38:46.110Z,1.50
2023-02-04T12:41:16.789Z,1.40
2023-02-04T12:43:46.105Z,1.30
2023-02-04T12:46:15.390Z,1.30
2023-02-04T12:48:44.738Z,1.20
2023-02-04T12:51:14.029Z,1.00
2023-02-04T12:53:43.393Z,0.90
2023-02-04T12:56:12.655Z,1.00
2023-02-04T12:58:43.374Z,1.00
2023-02-04T13:01:12.707Z,1.00
2023-02-04T13:03:42.068Z,1.20
2023-02-04T13:06:11.481Z,1.20
2023-02-04T13:08:40.931Z,1.20
2023-02-04T13:11:10.235Z,1.10
2023-02-04T13:13:39.554Z,1.10
2023-02-04T13:16:10.361Z,1.10
2023-02-04T13:18:39.700Z,1.10
2023-02-04T13:21:08.926Z,1.30
2023-02-04T13:23:38.173Z,1.30
2023-02-04T13:26:09.053Z,1.50
2023-02-04T13:28:38.675Z,1.60
2023-02-04T13:31:09.439Z,1.60
2023-02-04T13:33:38.768Z,1.60
2023-02-04T13:36:09.006Z,1.70
2023-02-04T13:38:38.290Z,1.80
2023-02-04T13:41:07.584Z,1.80
2023-02-04T13:43:36.925Z,1.90
2023-02-04T13:46:06.613Z,1.80
2023-02-04T13:48:37.652Z,1.60
2023-02-04T13:51:07.628Z,1.50
2023-02-04T13:53:36.859Z,1.30
2023-02-04T13:56:06.665Z,1.10
2023-02-04T13:58:36.051Z,1.10
2023-02-04T14:01:05.465Z,1.10
2023-02-04T14:03:34.796Z,1.20
2023-02-04T14:06:06.281Z,1.30
2023-02-04T14:08:35.536Z,1.40
2023-02-04T14:11:05.426Z,1.40
2023-02-04T14:13:35.122Z,1.20
2023-02-04T14:16:05.638Z,1.00
2023-02-04T14:18:35.684Z,0.80
2023-02-04T14:21:07.186Z,0.80
2023-02-04T14:23:36.776Z,0.70
2023-02-04T14:26:06.428Z,0.80
2023-02-04T14:28:35.656Z,0.70
2023-02-04T14:31:05.082Z,0.70
2023-02-04T14:33:34.658Z,0.70
2023-02-04T14:36:06.290Z,0.70
2023-02-04T14:38:36.255Z,0.70
2023-02-04T14:41:06.097Z,0.70
2023-02-04T14:43:37.536Z,0.70
2023-02-04T14:46:07.706Z,0.60
2023-02-04T14:48:37.029Z,0.50
2023-02-04T14:51:08.076Z,0.40
2023-02-04T14:53:37.558Z,0.30
2023-02-04T14:56:07.592Z,0.30
2023-02-04T14:58:37.013Z,0.30
2023-02-04T15:01:07.012Z,0.20
2023-02-04T15:03:36.671Z,0.20
2023-02-04T15:06:08.190Z,0.20
2023-02-04T15:08:37.505Z,0.20
2023-02-04T15:11:07.115Z,0.20
2023-02-04T15:13:36.438Z,0.20
2023-02-04T15:16:06.451Z,0.10
2023-02-04T15:18:36.637Z,0.10
2023-02-04T15:21:08.086Z,0.00
2023-02-04T15:23:37.531Z,0.00
2023-02-04T15:26:07.440Z,0.00
2023-02-04T15:28:37.381Z,0.00
2023-02-04T15:31:14.572Z,0.00
2023-02-04T15:33:47.913Z,0.00
2023-02-04T15:36:35.289Z,0.00
2023-02-04T15:39:09.147Z,-0.10
2023-02-04T15:41:45.244Z,-0.10
2023-02-04T15:44:23.170Z,-0.20
2023-02-04T15:46:54.805Z,-0.20
2023-02-04T15:49:32.711Z,-0.20
2023-02-04T15:52:05.798Z,-0.10
2023-02-04T15:54:45.143Z,-0.10
2023-02-04T15:57:17.960Z,-0.10
2023-02-04T15:59:51.693Z,0.00
2023-02-04T16:02:22.749Z,0.00
2023-02-04T16:04:52.158Z,0.00
2023-02-04T16:07:25.666Z,0.00
2023-02-04T16:09:55.834Z,0.00
2023-02-04T16:12:31.947Z,0.00
2023-02-04T16:15:01.345Z,0.00
2023-02-04T16:17:31.450Z,0.00
2023-02-04T16:20:02.266Z,0.00
2023-02-04T16:22:38.641Z,0.10
2023-02-04T16:25:10.853Z,0.00
2023-02-04T16:27:42.514Z,-0.10
2023-02-04T16:30:19.203Z,-0.20
2023-02-04T16:32:49.680Z,-0.10
2023-02-04T16:35:22.930Z,-0.10
2023-02-04T16:37:55.188Z,-0.10
2023-02-04T16:40:29.109Z,-0.20
2023-02-04T16:43:01.941Z,-0.20
2023-02-04T16:45:31.722Z,-0.30
2023-02-04T16:48:01.697Z,-0.30
2023-02-04T16:50:31.986Z,-0.40
2023-02-04T16:53:07.083Z,-0.40
2023-02-04T16:55:40.446Z,-0.30
2023-02-04T16:58:10.621Z,-0.30
2023-02-04T17:00:42.584Z,-0.30
2023-02-04T17:03:14.737Z,-0.30
2023-02-04T17:05:46.037Z,-0.30
2023-02-04T17:08:17.698Z,-0.40
2023-02-04T17:11:06.351Z,-0.50
2023-02-04T17:13:36.545Z,-0.50
2023-02-04T17:16:06.810Z,-0.60
2023-02-04T17:18:36.630Z,-0.50
2023-02-04T17:21:06.499Z,-0.50
2023-02-04T17:23:37.745Z,-0.60
2023-02-04T17:26:08.651Z,-0.70
2023-02-04T17:28:38.515Z,-0.60
2023-02-04T17:31:08.530Z,-0.60
2023-02-04T17:33:38.970Z,-0.60
2023-02-04T17:36:11.206Z,-0.70
2023-02-04T17:38:42.866Z,-0.70
2023-02-04T17:41:13.669Z,-0.70
2023-02-04T17:43:44.328Z,-0.70
2023-02-04T17:46:17.596Z,-0.70
2023-02-04T17:48:49.032Z,-0.80
2023-02-04T17:51:20.036Z,-0.70
2023-02-04T17:53:51.433Z,-0.70
2023-02-04T17:56:21.732Z,-0.70
2023-02-04T17:58:51.741Z,-0.70
2023-02-04T18:01:25.811Z,-0.70
2023-02-04T18:03:56.960Z,-0.60
2023-02-04T18:06:29.308Z,-0.70
2023-02-04T18:09:03.409Z,-0.70
2023-02-04T18:11:39.354Z,-0.70
2023-02-04T18:14:17.590Z,-0.70
2023-02-04T18:16:49.518Z,-0.70
2023-02-04T18:19:22.314Z,-0.70
2023-02-04T18:21:53.359Z,-0.50
2023-02-04T18:24:31.009Z,-0.40
2023-02-04T18:27:08.605Z,-0.40
2023-02-04T18:29:43.340Z,-0.40
2023-02-04T18:32:19.493Z,-0.40
2023-02-04T18:34:51.689Z,-0.40
2023-02-04T18:37:33.227Z,-0.30
2023-02-04T18:40:28.585Z,-0.20
2023-02-04T18:43:14.251Z,-0.20
2023-02-04T18:45:44.365Z,-0.20
2023-02-04T18:48:55.144Z,-0.40
2023-02-04T18:51:31.369Z,-0.50
2023-02-04T18:54:04.880Z,-0.60
2023-02-04T18:56:39.738Z,-0.60
2023-02-04T18:59:19.690Z,-0.60
2023-02-04T19:01:50.588Z,-0.60
2023-02-04T19:04:28.295Z,-0.60
2023-02-04T19:07:01.457Z,-0.60
2023-02-04T19:09:37.778Z,-0.60
2023-02-04T19:12:23.215Z,-0.60
2023-02-04T19:14:57.498Z,-0.60
2023-02-04T19:17:30.295Z,-0.60
2023-02-04T19:20:02.676Z,-0.60
2023-02-04T19:22:45.318Z,-0.60
2023-02-04T19:25:33.269Z,-0.70
2023-02-04T19:28:24.081Z,-0.70
2023-02-04T19:31:02.870Z,-0.70
2023-02-04T19:33:42.563Z,-0.80
2023-02-04T19:36:30.997Z,-0.90
2023-02-04T19:39:09.017Z,-0.80
2023-02-04T19:41:46.810Z,-1.00
2023-02-04T19:44:36.891Z,-1.00
2023-02-04T19:47:30.083Z,-1.00
2023-02-04T19:50:12.567Z,-0.90
2023-02-04T19:52:46.853Z,-1.00
2023-02-04T19:55:30.069Z,-1.00
2023-02-04T19:58:02.202Z,-1.00
2023-02-04T20:00:50.730Z,-1.10
2023-02-04T20:03:45.817Z,-1.10
2023-02-04T20:06:40.026Z,-1.00
2023-02-04T20:09:16.525Z,-1.10
2023-02-04T20:12:00.190Z,-1.10
2023-02-04T20:14:45.050Z,-1.10
2023-02-04T20:17:36.933Z,-1.10
2023-02-04T20:20:26.403Z,-1.10
2023-02-04T20:22:58.464Z,-1.20
2023-02-04T20:25:45.542Z,-1.10
2023-02-04T20:28:27.769Z,-1.20
2023-02-04T20:31:00.631Z,-1.30
2023-02-04T20:33:36.457Z,-1.30
2023-02-04T20:36:29.367Z,-1.30
2023-02-04T20:39:19.176Z,-1.40
2023-02-04T20:41:50.076Z,-1.40
2023-02-04T20:44:28.715Z,-1.40
2023-02-04T20:47:13.433Z,-1.40
2023-02-04T20:49:46.841Z,-1.30
2023-02-04T20:52:52.277Z,-1.40
2023-02-04T20:55:30.857Z,-1.40
2023-02-04T20:58:16.353Z,-1.50
2023-02-04T21:00:48.953Z,-1.40
2023-02-04T21:03:30.737Z,-1.40
2023-02-04T21:06:03.795Z,-1.50
2023-02-04T21:08:39.187Z,-1.50
2023-02-04T21:11:09.462Z,-1.50
2023-02-04T21:13:40.978Z,-1.50
2023-02-04T21:16:11.746Z,-1.50
2023-02-04T21:18:41.864Z,-1.50
2023-02-04T21:21:12.697Z,-1.50
2023-02-04T21:23:42.561Z,-1.50
2023-02-04T21:26:12.605Z,-1.60
2023-02-04T21:28:42.607Z,-1.60
2023-02-04T21:31:13.028Z,-1.70
2023-02-04T21:33:43.087Z,-1.70
2023-02-04T21:36:14.458Z,-1.70
2023-02-04T21:38:44.233Z,-1.70
2023-02-04T21:41:17.154Z,-1.80
2023-02-04T21:43:47.024Z,-1.80
2023-02-04T21:46:17.761Z,-1.90
2023-02-04T21:48:48.710Z,-1.90
2023-02-04T21:51:21.272Z,-2.00
2023-02-04T21:53:50.984Z,-1.90
2023-02-04T21:56:20.268Z,-2.00
2023-02-04T21:58:49.719Z,-2.00
2023-02-04T22:01:19.421Z,-2.10
2023-02-04T22:03:48.716Z,-2.10
2023-02-04T22:06:19.561Z,-2.20
2023-02-04T22:08:48.896Z,-2.20
2023-02-04T22:11:18.077Z,-2.20
2023-02-04T22:13:47.676Z,-2.30
2023-02-04T22:16:16.947Z,-2.20
2023-02-04T22:18:46.204Z,-2.30
2023-02-04T22:21:15.662Z,-2.40
2023-02-04T22:23:46.386Z,-2.30
2023-02-04T22:26:15.805Z,-2.30
2023-02-04T22:28:45.110Z,-2.30
2023-02-04T22:31:15.138Z,-2.40
2023-02-04T22:33:44.547Z,-2.40
2023-02-04T22:36:13.905Z,-2.50
2023-02-04T22:38:43.152Z,-2.60
2023-02-04T22:41:14.353Z,-2.70
2023-02-04T22:43:43.609Z,-2.60
2023-02-04T22:46:12.866Z,-2.70
2023-02-04T22:48:42.133Z,-2.70
2023-02-04T22:51:11.397Z,-2.70
2023-02-04T22:53:40.583Z,-2.70
2023-02-04T22:56:09.876Z,-2.80
2023-02-04T22:58:40.577Z,-2.90
2023-02-04T23:01:18.561Z,-2.90
2023-02-04T23:03:55.329Z,-2.90
2023-02-04T23:06:40.716Z,-2.80
2023-02-04T23:09:10.769Z,-2.80
2023-02-04T23:11:48.390Z,-2.80
2023-02-04T23:14:19.576Z,-2.90
2023-02-04T23:16:49.430Z,-2.80
2023-02-04T23:19:21.434Z,-2.90
2023-02-04T23:21:51.093Z,-2.90
2023-02-04T23:24:23.184Z,-2.90
2023-02-04T23:26:57.642Z,-2.90
2023-02-04T23:29:29.764Z,-2.90
2023-02-04T23:31:59.716Z,-2.80
2023-02-04T23:34:29.804Z,-2.80
2023-02-04T23:36:59.505Z,-2.80
2023-02-04T23:39:29.831Z,-2.70
2023-02-04T23:42:00.262Z,-2.80
2023-02-04T23:44:31.853Z,-2.80
2023-02-04T23:47:01.703Z,-2.80
2023-02-04T23:49:32.977Z,-2.80
2023-02-04T23:52:02.948Z,-2.90
2023-02-04T23:54:33.131Z,-2.90
2023-02-04T23:57:05.331Z,-2.90
2023-02-04T23:59:36.472Z,-2.90
